Granby, Colorado
Current Conditions -  °F | °C
As of 2:55 AM on Saturday 29 Nov 2014 (Local Time) from K20V Reporting Station
Clear Clear  
Wind Chill: 28°   Ceiling: Unl
Heat Index: 36°   Visibility: 10mi
Dew Point: 12°   Wind: 10mph
Humidity: 38%   Direction: 270°W
Pressure: 29.92"   Gusts: NA
Location:  40.09°N, 105.94°W
Report Text: K20V 290955Z AUTO 27009KT 10SM CLR 02/M11 A2992 RMK AO2
Loading
Personal Weather Stations






























Interactive Weather Map New forecast layout! Learn more

10-Day Weather Forecast

Advertisements
Track Severe Weather on mobile